createdAt,value
2023-04-10T00:07:43.474Z,53.70
2023-04-10T00:17:55.329Z,57.00
2023-04-10T00:28:03.026Z,53.10
2023-04-10T00:38:10.091Z,53.10
2023-04-10T00:48:17.737Z,56.50
2023-04-10T00:58:26.438Z,67.60
2023-04-10T01:08:31.564Z,66.50
2023-04-10T01:18:45.717Z,57.40
2023-04-10T01:29:00.671Z,51.40
2023-04-10T01:39:09.601Z,45.50
2023-04-10T01:49:17.627Z,45.50
2023-04-10T01:59:25.116Z,43.80
2023-04-10T02:09:29.983Z,48.50
2023-04-10T02:19:39.207Z,44.90
2023-04-10T02:29:46.200Z,40.10
2023-04-10T02:39:54.766Z,40.60
2023-04-10T02:50:01.793Z,40.00
2023-04-10T03:00:11.134Z,40.10
2023-04-10T03:10:16.976Z,38.60
2023-04-10T03:20:23.139Z,39.80
2023-04-10T03:30:30.488Z,40.50
2023-04-10T03:40:37.956Z,42.70
2023-04-10T03:50:45.402Z,43.40
2023-04-10T04:00:52.466Z,43.40
2023-04-10T04:10:59.565Z,43.50
2023-04-10T04:21:05.452Z,42.20
2023-04-10T04:31:12.623Z,45.30
2023-04-10T04:41:20.621Z,47.50
2023-04-10T04:51:27.331Z,42.70
2023-04-10T05:01:34.796Z,45.30
2023-04-10T05:11:41.152Z,44.40
2023-04-10T05:21:48.251Z,43.10
2023-04-10T05:31:55.499Z,42.50
2023-04-10T05:42:02.061Z,45.40
2023-04-10T05:52:09.061Z,47.90
2023-04-10T06:02:16.745Z,44.50
2023-04-10T06:12:24.172Z,47.50
2023-04-10T06:22:33.047Z,48.70
2023-04-10T06:32:40.649Z,46.50
2023-04-10T06:42:48.183Z,50.30
2023-04-10T06:52:56.623Z,50.00
2023-04-10T07:03:04.179Z,52.10
2023-04-10T07:13:12.106Z,50.70
2023-04-10T07:23:20.201Z,48.60
2023-04-10T07:33:27.868Z,46.60
2023-04-10T07:53:42.181Z,38.30
2023-04-10T08:03:49.702Z,37.20
2023-04-10T08:13:58.941Z,37.20
2023-04-10T08:24:07.734Z,37.70
2023-04-10T08:34:15.170Z,34.60
2023-04-10T08:44:19.954Z,34.40
2023-04-10T08:54:26.157Z,36.60
2023-04-10T09:04:32.476Z,36.20
2023-04-10T09:14:42.205Z,30.40
2023-04-10T09:24:48.698Z,28.30
2023-04-10T09:34:53.706Z,32.00
2023-04-10T09:45:02.044Z,32.00
2023-04-10T09:55:18.379Z,33.00
2023-04-10T10:05:26.124Z,32.00
2023-04-10T10:15:31.407Z,30.30
2023-04-10T10:25:37.913Z,31.40
2023-04-10T10:35:45.658Z,35.20
2023-04-10T10:45:50.895Z,33.50
2023-04-10T10:55:58.032Z,44.70
2023-04-10T11:06:07.161Z,31.00
2023-04-10T11:16:14.531Z,29.50
2023-04-10T11:26:38.535Z,28.80
2023-04-10T11:36:46.794Z,23.80
2023-04-10T11:46:54.558Z,24.60
2023-04-10T11:56:59.835Z,23.70
2023-04-10T12:07:06.510Z,21.70
2023-04-10T12:17:15.012Z,18.70
2023-04-10T12:27:23.772Z,18.20
2023-04-10T12:37:49.162Z,15.90
2023-04-10T12:47:56.588Z,13.00
2023-04-10T12:58:18.309Z,12.60
2023-04-10T13:08:26.331Z,14.30
2023-04-10T13:18:35.636Z,13.70
2023-04-10T13:28:43.797Z,11.30
2023-04-10T13:48:58.085Z,11.90
2023-04-10T13:59:03.821Z,11.20
2023-04-10T14:19:16.731Z,14.50
2023-04-10T14:29:33.084Z,13.40
2023-04-10T14:39:42.772Z,12.90
2023-04-10T14:49:50.024Z,11.70
2023-04-10T14:59:57.052Z,12.00
2023-04-10T15:10:04.544Z,14.10
2023-04-10T15:20:14.210Z,12.60
2023-04-10T15:30:21.344Z,12.60
2023-04-10T15:40:29.481Z,12.60
2023-04-10T15:50:35.403Z,12.90
2023-04-10T16:00:42.534Z,12.60
2023-04-10T16:10:49.701Z,10.20
2023-04-10T16:20:56.811Z,11.40
2023-04-10T16:31:04.959Z,10.50
2023-04-10T16:41:12.717Z,10.50
2023-04-10T16:51:20.861Z,9.90
2023-04-10T17:01:29.344Z,11.20
2023-04-10T17:11:35.484Z,9.50
2023-04-10T17:21:42.524Z,14.00
2023-04-10T17:31:49.683Z,21.20
2023-04-10T17:41:56.391Z,18.90
2023-04-10T17:52:04.238Z,17.90
2023-04-10T18:02:11.446Z,20.40
2023-04-10T18:12:18.650Z,27.00
2023-04-10T18:22:29.409Z,12.30
2023-04-10T18:32:37.116Z,9.50
2023-04-10T18:42:44.352Z,9.30
2023-04-10T18:52:51.468Z,12.80
2023-04-10T19:02:58.782Z,12.50
2023-04-10T19:13:06.383Z,11.40
2023-04-10T19:33:20.265Z,15.50
2023-04-10T19:43:27.455Z,62.90
2023-04-10T19:53:34.781Z,26.90
2023-04-10T20:03:42.496Z,14.40
2023-04-10T20:13:49.809Z,26.20
2023-04-10T20:23:56.343Z,26.70
2023-04-10T20:34:03.412Z,24.80
2023-04-10T20:44:10.453Z,24.20
2023-04-10T20:54:19.174Z,27.50
2023-04-10T21:04:26.447Z,25.60
2023-04-10T21:14:35.997Z,27.30
2023-04-10T21:24:43.127Z,30.90
2023-04-10T21:34:50.394Z,29.00
2023-04-10T21:44:57.347Z,29.40
2023-04-10T21:55:06.186Z,32.10
2023-04-10T22:05:13.699Z,29.30
2023-04-10T22:15:21.489Z,31.80
2023-04-10T22:25:28.712Z,37.20
2023-04-10T22:35:36.116Z,39.40
2023-04-10T22:45:42.654Z,39.70
2023-04-10T22:55:49.864Z,42.80
2023-04-10T23:05:56.864Z,50.30
2023-04-10T23:16:03.907Z,39.50
2023-04-10T23:26:11.645Z,42.50
2023-04-10T23:36:18.663Z,47.40
2023-04-10T23:46:25.905Z,54.50
2023-04-10T23:56:33.231Z,54.00
